Time;durP1;ratioP1;P1;durP2;ratioP2;P2;SDS_P1;SDS_P2;PMS_P1;PMS_P2;Temp;Humidity;BMP_temperature;BMP_pressure;BME280_temperature;BME280_humidity;BME280_pressure;Samples;Min_cycle;Max_cycle;Signal;HPM_P1;HPM_P2
2023/06/06 00:01:55;;;;;;;5.75;3.80;;;;;;;;;;6363248;28;20289;-71
2023/06/06 00:05:00;;;;;;;7.78;3.60;;;;;;;;;;6362167;28;20589;-72
2023/06/06 00:08:07;;;;;;;4.75;3.22;;;;;;;;;;6345037;28;20313;-70
2023/06/06 00:11:13;;;;;;;6.50;3.50;;;;;;;;;;6360584;28;20288;-70
2023/06/06 00:14:18;;;;;;;8.07;3.08;;;;;;;;;;6361325;28;20285;-70
2023/06/06 00:17:25;;;;;;;9.35;3.47;;;;;;;;;;6362665;28;20307;-69
2023/06/06 00:20:32;;;;;;;9.32;3.58;;;;;;;;;;6361835;28;20297;-71
2023/06/06 00:23:38;;;;;;;15.52;4.95;;;;;;;;;;6360117;28;20284;-72
2023/06/06 00:26:43;;;;;;;19.55;4.10;;;;;;;;;;6362127;28;20266;-71
2023/06/06 00:29:48;;;;;;;8.73;3.15;;;;;;;;;;6361421;28;20297;-71
2023/06/06 00:32:55;;;;;;;11.88;3.42;;;;;;;;;;6343660;28;20264;-71
2023/06/06 00:36:01;;;;;;;4.68;3.90;;;;;;;;;;6344338;28;20295;-71
2023/06/06 00:39:06;;;;;;;5.88;3.53;;;;;;;;;;6361885;28;20465;-70
2023/06/06 00:42:12;;;;;;;11.30;3.50;;;;;;;;;;6361865;28;20300;-71
2023/06/06 00:45:17;;;;;;;9.00;3.40;;;;;;;;;;6361234;28;20593;-71
2023/06/06 00:48:24;;;;;;;7.03;2.92;;;;;;;;;;6360817;28;20305;-71
2023/06/06 00:51:30;;;;;;;6.07;3.10;;;;;;;;;;6343938;28;20293;-72
2023/06/06 00:54:36;;;;;;;3.50;2.80;;;;;;;;;;6360950;28;20289;-70
2023/06/06 00:57:44;;;;;;;5.45;3.60;;;;;;;;;;6361454;28;20296;-71
2023/06/06 01:00:49;;;;;;;6.85;2.90;;;;;;;;;;6343562;28;20292;-70
2023/06/06 01:03:57;;;;;;;6.10;3.30;;;;;;;;;;6334259;28;20290;-70
2023/06/06 01:07:02;;;;;;;4.65;2.90;;;;;;;;;;6336363;28;20290;-71
2023/06/06 01:10:10;;;;;;;3.58;3.00;;;;;;;;;;6333065;28;20309;-73
2023/06/06 01:13:22;;;;;;;3.58;3.08;;;;;;;;;;6334334;28;20494;-70
2023/06/06 01:16:30;;;;;;;3.38;3.13;;;;;;;;;;6334177;28;20315;-71
2023/06/06 01:19:37;;;;;;;9.38;3.33;;;;;;;;;;6335567;28;20285;-72
2023/06/06 01:22:46;;;;;;;7.30;3.40;;;;;;;;;;6335934;28;20294;-71
2023/06/06 01:25:51;;;;;;;10.85;3.47;;;;;;;;;;6335630;28;20289;-71
2023/06/06 01:28:56;;;;;;;11.35;3.17;;;;;;;;;;6335548;28;20289;-71
2023/06/06 01:32:06;;;;;;;4.38;3.10;;;;;;;;;;6335906;28;20285;-70
2023/06/06 01:35:16;;;;;;;3.50;2.83;;;;;;;;;;6334689;28;20294;-70
2023/06/06 01:38:26;;;;;;;5.05;3.20;;;;;;;;;;6335815;28;20298;-70
2023/06/06 01:41:33;;;;;;;3.22;3.00;;;;;;;;;;6336070;28;20305;-70
2023/06/06 01:44:39;;;;;;;7.13;3.80;;;;;;;;;;6334415;28;20297;-72
2023/06/06 01:47:45;;;;;;;3.13;2.85;;;;;;;;;;6338829;28;20257;-70
2023/06/06 01:50:50;;;;;;;5.65;2.97;;;;;;;;;;6340734;28;20290;-71
2023/06/06 01:53:59;;;;;;;5.20;3.20;;;;;;;;;;6340802;28;20298;-70
2023/06/06 01:57:05;;;;;;;8.88;3.25;;;;;;;;;;6339246;28;20286;-70
2023/06/06 02:00:13;;;;;;;7.53;3.00;;;;;;;;;;6337823;28;20293;-70
2023/06/06 02:03:18;;;;;;;9.88;3.20;;;;;;;;;;6341553;28;20289;-71
2023/06/06 02:06:23;;;;;;;6.68;3.13;;;;;;;;;;6342187;28;20288;-70
2023/06/06 02:09:30;;;;;;;10.13;3.30;;;;;;;;;;6341499;28;20297;-70
2023/06/06 02:12:35;;;;;;;20.42;4.97;;;;;;;;;;6358548;28;20578;-70
2023/06/06 02:15:40;;;;;;;30.02;8.52;;;;;;;;;;6359533;28;20302;-71
2023/06/06 02:18:46;;;;;;;27.25;8.35;;;;;;;;;;6341654;28;20289;-72
2023/06/06 02:21:51;;;;;;;29.73;8.10;;;;;;;;;;6359832;28;20300;-71
2023/06/06 02:24:59;;;;;;;26.98;7.53;;;;;;;;;;6341209;28;20376;-71
2023/06/06 02:28:07;;;;;;;22.90;7.97;;;;;;;;;;6359571;28;20293;-70
2023/06/06 02:31:14;;;;;;;19.27;6.63;;;;;;;;;;6359507;28;20364;-71
2023/06/06 02:34:21;;;;;;;18.02;5.88;;;;;;;;;;6359102;28;20302;-70
2023/06/06 02:37:28;;;;;;;11.63;5.70;;;;;;;;;;6364650;28;20285;-70
2023/06/06 02:40:35;;;;;;;9.48;5.38;;;;;;;;;;6346092;28;20288;-69
2023/06/06 02:43:42;;;;;;;6.75;4.97;;;;;;;;;;6363791;28;20300;-69
2023/06/06 02:46:47;;;;;;;13.45;4.75;;;;;;;;;;6346720;28;20288;-72
2023/06/06 02:49:53;;;;;;;15.13;5.35;;;;;;;;;;6347072;28;20293;-71
2023/06/06 02:53:02;;;;;;;14.73;4.70;;;;;;;;;;6348039;28;20577;-69
2023/06/06 02:56:10;;;;;;;15.88;5.30;;;;;;;;;;6345965;28;20289;-72
2023/06/06 02:59:15;;;;;;;40.30;5.78;;;;;;;;;;6345842;28;20292;-69
2023/06/06 03:02:21;;;;;;;30.08;4.40;;;;;;;;;;6344642;28;20298;-75
2023/06/06 03:05:29;;;;;;;19.52;4.63;;;;;;;;;;6305656;28;20298;-71
2023/06/06 03:08:35;;;;;;;25.33;5.10;;;;;;;;;;6330326;28;20586;-70
2023/06/06 03:11:41;;;;;;;42.67;5.38;;;;;;;;;;6319431;28;20297;-71
2023/06/06 03:14:47;;;;;;;31.30;4.57;;;;;;;;;;6319876;28;20297;-70
2023/06/06 03:18:06;;;;;;;19.23;4.20;;;;;;;;;;6320362;28;20314;-70
2023/06/06 03:21:12;;;;;;;30.65;4.30;;;;;;;;;;6304189;28;20305;-70
2023/06/06 03:24:21;;;;;;;15.05;3.60;;;;;;;;;;6294726;28;20611;-71
2023/06/06 03:27:28;;;;;;;21.52;3.78;;;;;;;;;;6313243;28;20294;-71
2023/06/06 03:30:33;;;;;;;7.25;4.05;;;;;;;;;;6294559;28;20235;-72
2023/06/06 03:33:39;;;;;;;9.88;3.63;;;;;;;;;;6295460;28;20294;-72
2023/06/06 03:36:45;;;;;;;10.93;3.80;;;;;;;;;;6297248;28;20298;-70
2023/06/06 03:39:52;;;;;;;11.90;3.58;;;;;;;;;;6319561;28;20285;-71
2023/06/06 03:42:59;;;;;;;4.40;3.28;;;;;;;;;;6319978;28;20386;-70
2023/06/06 03:46:05;;;;;;;5.75;3.17;;;;;;;;;;6318936;28;20290;-71
2023/06/06 03:49:11;;;;;;;6.53;2.80;;;;;;;;;;6318964;28;20289;-70
2023/06/06 03:52:16;;;;;;;6.88;3.20;;;;;;;;;;6319791;28;20345;-70
2023/06/06 03:55:22;;;;;;;5.68;3.40;;;;;;;;;;6319301;28;20297;-71
2023/06/06 03:58:30;;;;;;;7.55;3.75;;;;;;;;;;6337459;28;20444;-71
2023/06/06 04:01:35;;;;;;;7.13;3.33;;;;;;;;;;6337250;28;20301;-70
2023/06/06 04:04:41;;;;;;;5.88;3.03;;;;;;;;;;6318416;28;20289;-70
2023/06/06 04:07:47;;;;;;;20.90;3.90;;;;;;;;;;6337290;28;20285;-71
2023/06/06 04:10:52;;;;;;;7.75;3.28;;;;;;;;;;6318411;28;20285;-71
2023/06/06 04:13:59;;;;;;;7.43;3.60;;;;;;;;;;6336621;28;20297;-71
2023/06/06 04:17:07;;;;;;;5.15;3.03;;;;;;;;;;6336992;28;20306;-70
2023/06/06 04:20:13;;;;;;;8.80;3.40;;;;;;;;;;6318705;28;20289;-71
2023/06/06 04:23:18;;;;;;;8.75;2.80;;;;;;;;;;6337001;28;20310;-70
2023/06/06 04:26:25;;;;;;;2.70;2.50;;;;;;;;;;6318424;28;20470;-70
2023/06/06 04:29:33;;;;;;;5.32;2.65;;;;;;;;;;6318310;28;20612;-70
2023/06/06 04:32:39;;;;;;;2.85;2.60;;;;;;;;;;6336238;28;20265;-70
2023/06/06 04:35:46;;;;;;;2.53;2.35;;;;;;;;;;6336608;28;20286;-71
2023/06/06 04:38:52;;;;;;;3.08;2.78;;;;;;;;;;6318017;28;20261;-69
2023/06/06 04:41:58;;;;;;;4.03;2.30;;;;;;;;;;6317247;28;20296;-70
2023/06/06 04:45:06;;;;;;;3.28;2.80;;;;;;;;;;6336220;28;20302;-70
2023/06/06 04:48:15;;;;;;;3.33;2.35;;;;;;;;;;6318464;28;20313;-70
2023/06/06 04:51:22;;;;;;;3.10;2.60;;;;;;;;;;6317945;28;20290;-71
2023/06/06 04:54:27;;;;;;;2.58;2.30;;;;;;;;;;6335638;28;20297;-71
2023/06/06 04:57:33;;;;;;;3.70;2.50;;;;;;;;;;6336084;28;20305;-70
2023/06/06 05:00:40;;;;;;;4.18;2.75;;;;;;;;;;6335291;28;20302;-70
2023/06/06 05:03:46;;;;;;;3.63;2.63;;;;;;;;;;6335801;28;20473;-71
2023/06/06 05:06:51;;;;;;;3.92;2.58;;;;;;;;;;6335758;28;20313;-71
2023/06/06 05:09:56;;;;;;;2.60;2.40;;;;;;;;;;6335422;28;20475;-71
2023/06/06 05:13:02;;;;;;;2.63;2.50;;;;;;;;;;6306576;28;20290;-70
2023/06/06 05:16:09;;;;;;;9.90;2.58;;;;;;;;;;6310182;28;20286;-70
2023/06/06 05:19:15;;;;;;;3.08;2.80;;;;;;;;;;6310234;28;20291;-70
2023/06/06 05:22:20;;;;;;;3.92;2.35;;;;;;;;;;6309735;28;20294;-71
2023/06/06 05:25:25;;;;;;;5.32;2.63;;;;;;;;;;6309847;28;20311;-70
2023/06/06 05:28:31;;;;;;;6.68;2.50;;;;;;;;;;6310340;28;20321;-70
2023/06/06 05:31:38;;;;;;;6.85;2.58;;;;;;;;;;6309218;28;20297;-71
2023/06/06 05:34:43;;;;;;;4.40;2.88;;;;;;;;;;6309837;28;20607;-71
2023/06/06 05:37:49;;;;;;;4.03;2.85;;;;;;;;;;6309931;28;20293;-71
2023/06/06 05:40:54;;;;;;;2.70;2.58;;;;;;;;;;6309221;28;20303;-70
2023/06/06 05:43:59;;;;;;;5.03;2.38;;;;;;;;;;6309353;28;20294;-70
2023/06/06 05:47:07;;;;;;;2.80;2.67;;;;;;;;;;6309461;28;20294;-71
2023/06/06 05:50:12;;;;;;;2.80;2.58;;;;;;;;;;6309451;28;20294;-70
2023/06/06 05:53:17;;;;;;;2.28;2.17;;;;;;;;;;6310174;28;20303;-70
2023/06/06 05:56:22;;;;;;;4.78;2.80;;;;;;;;;;6309312;28;20298;-70
2023/06/06 05:59:28;;;;;;;2.50;2.40;;;;;;;;;;6309369;28;20298;-71
2023/06/06 06:02:36;;;;;;;2.55;2.38;;;;;;;;;;6309415;28;20290;-70
2023/06/06 06:05:42;;;;;;;2.28;2.17;;;;;;;;;;6332704;28;20293;-70
2023/06/06 06:08:49;;;;;;;2.45;2.33;;;;;;;;;;6334731;28;20311;-70
2023/06/06 06:11:54;;;;;;;2.78;2.55;;;;;;;;;;6338108;28;20297;-71
2023/06/06 06:15:00;;;;;;;13.45;2.80;;;;;;;;;;6338857;28;20297;-70
2023/06/06 06:18:06;;;;;;;9.07;2.90;;;;;;;;;;6339766;28;20458;-70
2023/06/06 06:21:12;;;;;;;13.75;2.97;;;;;;;;;;6339222;28;20593;-70
2023/06/06 06:24:17;;;;;;;3.00;2.70;;;;;;;;;;6339112;28;20301;-70
2023/06/06 06:27:24;;;;;;;8.57;2.55;;;;;;;;;;6321705;28;20301;-70
2023/06/06 06:30:29;;;;;;;3.33;2.85;;;;;;;;;;6338413;28;20317;-70
2023/06/06 06:33:36;;;;;;;2.42;2.40;;;;;;;;;;6339356;28;20597;-70
2023/06/06 06:36:41;;;;;;;8.48;2.80;;;;;;;;;;6338628;28;20302;-70
2023/06/06 06:39:48;;;;;;;6.38;2.70;;;;;;;;;;6338172;28;20285;-69
2023/06/06 06:42:53;;;;;;;3.20;3.05;;;;;;;;;;6338850;28;20467;-70
2023/06/06 06:46:13;;;;;;;3.30;3.20;;;;;;;;;;6320875;28;20598;-70
2023/06/06 06:49:20;;;;;;;3.83;3.35;;;;;;;;;;6338209;28;20290;-71
2023/06/06 06:52:27;;;;;;;3.30;3.00;;;;;;;;;;6338698;28;20297;-70
2023/06/06 06:55:34;;;;;;;3.17;2.97;;;;;;;;;;6338033;28;20298;-71
2023/06/06 06:58:41;;;;;;;2.90;2.80;;;;;;;;;;6338686;28;20290;-71
2023/06/06 07:01:49;;;;;;;2.88;2.67;;;;;;;;;;6338352;28;20449;-71
2023/06/06 07:04:59;;;;;;;2.70;2.70;;;;;;;;;;6337252;28;20294;-71
2023/06/06 07:08:05;;;;;;;2.88;2.70;;;;;;;;;;6338374;28;20545;-71
2023/06/06 07:11:12;;;;;;;3.30;3.10;;;;;;;;;;6337317;28;20290;-70
2023/06/06 07:14:17;;;;;;;7.32;3.03;;;;;;;;;;6337232;28;20297;-70
2023/06/06 07:17:25;;;;;;;3.08;2.83;;;;;;;;;;6337956;28;20476;-71
2023/06/06 07:20:31;;;;;;;3.25;3.00;;;;;;;;;;6336987;28;20301;-70
2023/06/06 07:23:36;;;;;;;2.60;2.40;;;;;;;;;;6337415;28;20297;-70
2023/06/06 07:26:42;;;;;;;2.63;2.53;;;;;;;;;;6336525;28;20294;-70
2023/06/06 07:29:47;;;;;;;2.42;2.30;;;;;;;;;;6337228;28;20349;-71
2023/06/06 07:32:52;;;;;;;5.75;2.72;;;;;;;;;;6337966;28;20285;-71
2023/06/06 07:35:59;;;;;;;2.97;2.60;;;;;;;;;;6337046;28;20321;-71
2023/06/06 07:39:04;;;;;;;2.55;2.53;;;;;;;;;;6337230;28;20298;-71
2023/06/06 07:42:12;;;;;;;2.78;2.67;;;;;;;;;;6337618;28;20317;-73
2023/06/06 07:45:17;;;;;;;2.72;2.53;;;;;;;;;;6336746;28;20294;-71
2023/06/06 07:48:23;;;;;;;2.72;2.63;;;;;;;;;;6336699;28;20491;-70
2023/06/06 07:51:30;;;;;;;3.03;2.83;;;;;;;;;;6336600;28;20294;-70
2023/06/06 07:54:37;;;;;;;2.97;2.70;;;;;;;;;;6336132;28;20303;-71
2023/06/06 07:57:45;;;;;;;3.03;2.80;;;;;;;;;;6337013;28;20290;-70
2023/06/06 08:00:51;;;;;;;2.85;2.65;;;;;;;;;;6336560;28;20289;-71
2023/06/06 08:03:56;;;;;;;3.08;2.80;;;;;;;;;;6336652;28;20302;-71
2023/06/06 08:07:03;;;;;;;3.08;2.88;;;;;;;;;;6335844;28;20543;-71
2023/06/06 08:10:11;;;;;;;6.15;2.85;;;;;;;;;;6336383;28;20592;-73
2023/06/06 08:13:16;;;;;;;3.28;2.97;;;;;;;;;;6336937;28;20299;-70
2023/06/06 08:16:21;;;;;;;4.95;2.78;;;;;;;;;;6336041;28;20592;-71
2023/06/06 08:19:27;;;;;;;2.90;2.80;;;;;;;;;;6335613;28;20305;-70
2023/06/06 08:22:34;;;;;;;3.65;2.70;;;;;;;;;;6336383;28;20293;-70
2023/06/06 08:25:40;;;;;;;2.50;2.50;;;;;;;;;;6336224;28;20294;-70
2023/06/06 08:28:45;;;;;;;4.28;2.58;;;;;;;;;;6336534;28;20297;-72
2023/06/06 08:31:52;;;;;;;3.60;2.70;;;;;;;;;;6335771;28;20286;-72
2023/06/06 08:34:57;;;;;;;2.95;2.53;;;;;;;;;;6334950;28;20604;-69
2023/06/06 08:38:04;;;;;;;2.85;2.10;;;;;;;;;;6319079;28;20294;-69
2023/06/06 08:41:10;;;;;;;3.30;2.28;;;;;;;;;;6335402;28;20439;-70
2023/06/06 08:44:15;;;;;;;5.28;2.50;;;;;;;;;;6335156;28;20293;-70
2023/06/06 08:47:23;;;;;;;2.60;2.50;;;;;;;;;;6336371;28;20306;-71
2023/06/06 08:50:30;;;;;;;2.22;2.10;;;;;;;;;;6335674;28;20555;-70
2023/06/06 08:53:37;;;;;;;2.28;2.17;;;;;;;;;;6335914;28;20293;-70
2023/06/06 08:56:45;;;;;;;7.82;2.00;;;;;;;;;;6334105;28;20293;-70
2023/06/06 08:59:50;;;;;;;3.33;2.25;;;;;;;;;;6334905;28;20293;-71
2023/06/06 09:02:56;;;;;;;3.90;2.30;;;;;;;;;;6334624;28;20269;-71
2023/06/06 09:06:02;;;;;;;2.05;1.95;;;;;;;;;;6334871;28;20297;-70
2023/06/06 09:09:10;;;;;;;2.22;2.08;;;;;;;;;;6334651;28;20285;-71
2023/06/06 09:12:15;;;;;;;5.45;2.33;;;;;;;;;;6335328;28;20290;-70
2023/06/06 09:15:20;;;;;;;2.33;2.13;;;;;;;;;;6334484;28;20298;-71
2023/06/06 09:18:28;;;;;;;4.43;2.40;;;;;;;;;;6334868;28;20285;-70
2023/06/06 09:21:34;;;;;;;2.38;2.10;;;;;;;;;;6334531;28;20305;-71
2023/06/06 09:24:45;;;;;;;2.78;2.22;;;;;;;;;;6333853;28;20297;-70
2023/06/06 09:27:58;;;;;;;2.10;2.10;;;;;;;;;;6334857;28;20286;-69
2023/06/06 09:31:23;;;;;;;2.40;2.30;;;;;;;;;;6334396;28;20296;-69
2023/06/06 09:34:29;;;;;;;3.05;2.80;;;;;;;;;;6316112;28;20460;-70
2023/06/06 09:37:34;;;;;;;2.67;2.17;;;;;;;;;;6335248;28;20290;-71
2023/06/06 09:40:51;;;;;;;2.42;2.33;;;;;;;;;;6312809;28;20607;-70
2023/06/06 09:43:57;;;;;;;4.72;2.08;;;;;;;;;;6311250;28;20287;-70
2023/06/06 09:47:03;;;;;;;3.70;2.67;;;;;;;;;;6296065;28;20289;-70
2023/06/06 09:50:11;;;;;;;2.50;2.30;;;;;;;;;;6315459;28;20344;-70
2023/06/06 09:53:17;;;;;;;3.35;2.00;;;;;;;;;;6315604;28;20380;-70
2023/06/06 09:56:25;;;;;;;2.38;2.33;;;;;;;;;;6313717;28;20471;-71
2023/06/06 09:59:31;;;;;;;2.20;2.10;;;;;;;;;;6314105;28;20294;-70
2023/06/06 10:02:40;;;;;;;3.38;2.35;;;;;;;;;;6313138;28;20290;-71
2023/06/06 10:05:47;;;;;;;3.03;2.65;;;;;;;;;;6310836;28;20551;-71
2023/06/06 10:08:54;;;;;;;3.08;2.60;;;;;;;;;;6310318;28;20266;-69
2023/06/06 10:12:01;;;;;;;2.63;2.42;;;;;;;;;;6328368;28;20281;-70
2023/06/06 10:15:10;;;;;;;2.55;2.45;;;;;;;;;;6318332;28;20289;-70
2023/06/06 10:18:16;;;;;;;2.63;2.53;;;;;;;;;;6337020;28;20528;-70
2023/06/06 10:21:22;;;;;;;3.08;2.80;;;;;;;;;;6334353;28;20294;-70
2023/06/06 10:24:27;;;;;;;2.90;2.40;;;;;;;;;;6334057;28;20290;-71
2023/06/06 10:27:42;;;;;;;2.60;2.40;;;;;;;;;;6334703;28;20444;-70
2023/06/06 10:30:58;;;;;;;4.22;2.60;;;;;;;;;;6333713;28;20301;-70
2023/06/06 10:34:07;;;;;;;3.17;2.50;;;;;;;;;;6333376;28;20297;-71
2023/06/06 10:37:16;;;;;;;4.38;2.50;;;;;;;;;;6334134;28;20376;-72
2023/06/06 10:40:26;;;;;;;7.05;3.17;;;;;;;;;;6316138;28;20451;-71
2023/06/06 10:43:52;;;;;;;4.03;2.88;;;;;;;;;;6334072;28;20294;-71
2023/06/06 10:47:24;;;;;;;4.80;2.50;;;;;;;;;;6333658;28;20554;-71
2023/06/06 10:50:30;;;;;;;6.00;2.42;;;;;;;;;;6333855;28;20256;-70
2023/06/06 10:53:35;;;;;;;2.40;2.30;;;;;;;;;;6334308;28;20286;-71
2023/06/06 10:56:48;;;;;;;2.90;2.70;;;;;;;;;;6316469;28;20446;-71
2023/06/06 10:59:55;;;;;;;2.40;2.40;;;;;;;;;;6338481;28;20285;-70
2023/06/06 11:03:05;;;;;;;2.63;2.42;;;;;;;;;;6336801;28;20297;-70
2023/06/06 11:06:16;;;;;;;4.20;2.50;;;;;;;;;;6312652;28;20290;-71
2023/06/06 11:09:22;;;;;;;6.13;2.67;;;;;;;;;;6312399;28;20290;-70
2023/06/06 11:12:30;;;;;;;2.42;2.42;;;;;;;;;;6295145;28;20325;-69
2023/06/06 11:15:36;;;;;;;4.47;2.40;;;;;;;;;;6312095;28;20294;-70
2023/06/06 11:18:42;;;;;;;2.65;2.55;;;;;;;;;;6312854;28;20282;-70
2023/06/06 11:21:48;;;;;;;3.20;3.10;;;;;;;;;;6312535;28;20578;-71
2023/06/06 11:24:57;;;;;;;7.25;2.88;;;;;;;;;;6312065;28;20311;-70
2023/06/06 11:28:02;;;;;;;5.45;3.60;;;;;;;;;;6312703;28;20294;-70
2023/06/06 11:31:09;;;;;;;3.22;3.08;;;;;;;;;;6312153;28;20582;-70
2023/06/06 11:34:15;;;;;;;6.05;2.80;;;;;;;;;;6311821;28;20295;-71
2023/06/06 11:37:21;;;;;;;4.00;2.60;;;;;;;;;;6312372;28;20305;-71
2023/06/06 11:40:26;;;;;;;4.97;3.50;;;;;;;;;;6311869;28;20290;-70
2023/06/06 11:43:31;;;;;;;2.80;2.60;;;;;;;;;;6311919;28;20290;-70
2023/06/06 11:46:48;;;;;;;3.60;3.30;;;;;;;;;;6311744;28;20297;-70
2023/06/06 11:49:54;;;;;;;5.35;3.17;;;;;;;;;;6311844;28;20310;-69
2023/06/06 11:53:00;;;;;;;4.13;3.03;;;;;;;;;;6312602;28;20294;-70
2023/06/06 11:56:06;;;;;;;3.13;2.92;;;;;;;;;;6312873;28;20503;-69
2023/06/06 11:59:13;;;;;;;4.13;2.53;;;;;;;;;;6311638;28;20556;-70
2023/06/06 12:02:19;;;;;;;2.60;2.50;;;;;;;;;;6311903;28;20491;-70
2023/06/06 12:05:26;;;;;;;4.10;2.47;;;;;;;;;;6332488;28;20293;-71
2023/06/06 12:08:34;;;;;;;2.60;2.50;;;;;;;;;;6317732;28;20306;-70
2023/06/06 12:11:51;;;;;;;3.35;2.72;;;;;;;;;;6330203;28;20286;-71
2023/06/06 12:15:01;;;;;;;3.60;3.40;;;;;;;;;;6336016;28;20298;-71
2023/06/06 12:18:08;;;;;;;2.60;2.40;;;;;;;;;;6336835;28;20290;-71
2023/06/06 12:21:16;;;;;;;3.70;2.78;;;;;;;;;;6335972;28;20301;-72
2023/06/06 12:24:22;;;;;;;3.35;2.88;;;;;;;;;;6317834;28;20408;-70
2023/06/06 12:27:27;;;;;;;2.53;2.42;;;;;;;;;;6317968;28;20573;-70
2023/06/06 12:30:33;;;;;;;3.83;2.78;;;;;;;;;;6317350;28;20297;-70
2023/06/06 12:33:47;;;;;;;2.50;2.40;;;;;;;;;;6336190;28;20365;-70
2023/06/06 12:36:52;;;;;;;3.35;2.90;;;;;;;;;;6335480;28;20293;-71
2023/06/06 12:40:08;;;;;;;3.42;2.60;;;;;;;;;;6335404;28;20294;-72
2023/06/06 12:43:13;;;;;;;3.25;2.45;;;;;;;;;;6335628;28;20294;-70
2023/06/06 12:46:21;;;;;;;2.83;2.60;;;;;;;;;;6335631;28;20297;-70
2023/06/06 12:49:30;;;;;;;5.65;2.50;;;;;;;;;;6317163;28;20293;-70
2023/06/06 12:52:35;;;;;;;2.85;2.67;;;;;;;;;;6335437;28;20289;-72
2023/06/06 12:55:42;;;;;;;2.90;2.80;;;;;;;;;;6335217;28;20297;-71
2023/06/06 12:58:48;;;;;;;2.85;2.60;;;;;;;;;;6335416;28;20289;-70
2023/06/06 13:01:54;;;;;;;4.43;2.65;;;;;;;;;;6334754;28;20306;-71
2023/06/06 13:05:01;;;;;;;8.48;3.30;;;;;;;;;;6334258;28;20483;-70
2023/06/06 13:08:07;;;;;;;3.08;2.63;;;;;;;;;;6317420;28;20317;-71
2023/06/06 13:11:13;;;;;;;4.10;2.58;;;;;;;;;;6329734;28;20297;-71
2023/06/06 13:14:18;;;;;;;2.95;2.78;;;;;;;;;;6334946;28;20298;-71
2023/06/06 13:17:24;;;;;;;3.05;2.75;;;;;;;;;;6335491;28;20294;-70
2023/06/06 13:20:31;;;;;;;3.58;2.60;;;;;;;;;;6334718;28;20294;-70
2023/06/06 13:23:36;;;;;;;2.92;2.80;;;;;;;;;;6335018;28;20294;-70
2023/06/06 13:26:43;;;;;;;2.92;2.83;;;;;;;;;;6333248;28;20293;-70
2023/06/06 13:29:48;;;;;;;2.63;2.50;;;;;;;;;;6334307;28;20285;-70
2023/06/06 13:32:53;;;;;;;5.35;2.50;;;;;;;;;;6334322;28;20266;-71
2023/06/06 13:36:00;;;;;;;4.03;3.90;;;;;;;;;;6316413;28;20289;-71
2023/06/06 13:39:05;;;;;;;2.83;2.72;;;;;;;;;;6334020;28;20285;-71
2023/06/06 13:42:12;;;;;;;2.72;2.60;;;;;;;;;;6334707;28;20487;-70
2023/06/06 13:45:17;;;;;;;2.80;2.60;;;;;;;;;;6334190;28;20313;-71
2023/06/06 13:48:22;;;;;;;5.15;2.83;;;;;;;;;;6334774;28;20369;-71
2023/06/06 13:51:29;;;;;;;3.00;2.80;;;;;;;;;;6334818;28;20314;-70
2023/06/06 13:54:35;;;;;;;6.22;2.78;;;;;;;;;;6334274;28;20321;-71
2023/06/06 13:57:41;;;;;;;5.53;3.08;;;;;;;;;;6316818;28;20324;-70
2023/06/06 14:00:46;;;;;;;2.85;2.63;;;;;;;;;;6334005;28;20542;-70
2023/06/06 14:03:52;;;;;;;3.50;3.30;;;;;;;;;;6334235;28;20307;-70
2023/06/06 14:06:59;;;;;;;11.73;3.20;;;;;;;;;;6316157;28;20289;-71
2023/06/06 14:10:09;;;;;;;3.17;3.00;;;;;;;;;;6334134;28;20298;-72
2023/06/06 14:13:15;;;;;;;6.45;2.65;;;;;;;;;;6294121;28;20313;-70
2023/06/06 14:16:20;;;;;;;3.72;2.30;;;;;;;;;;6308467;28;20299;-71
2023/06/06 14:19:35;;;;;;;3.92;2.90;;;;;;;;;;6308715;28;20289;-70
2023/06/06 14:22:43;;;;;;;2.83;2.70;;;;;;;;;;6291637;28;20435;-70
2023/06/06 14:25:48;;;;;;;2.83;2.67;;;;;;;;;;6308384;28;20294;-72
2023/06/06 14:28:54;;;;;;;3.00;2.72;;;;;;;;;;6309200;28;20397;-71
2023/06/06 14:31:59;;;;;;;6.10;2.10;;;;;;;;;;6310649;28;20290;-71
2023/06/06 14:35:07;;;;;;;2.80;2.67;;;;;;;;;;6313453;28;20298;-71
2023/06/06 14:38:15;;;;;;;3.75;2.92;;;;;;;;;;6313930;28;20414;-72
2023/06/06 14:41:21;;;;;;;2.83;2.72;;;;;;;;;;6313528;28;20310;-70
2023/06/06 14:44:30;;;;;;;3.55;2.35;;;;;;;;;;6313375;28;20286;-70
2023/06/06 14:47:36;;;;;;;3.47;2.78;;;;;;;;;;6313336;28;20584;-70
2023/06/06 14:50:41;;;;;;;3.22;2.78;;;;;;;;;;6312339;28;20286;-71
2023/06/06 14:53:48;;;;;;;3.28;3.03;;;;;;;;;;6313193;28;20267;-70
2023/06/06 14:56:53;;;;;;;4.57;3.10;;;;;;;;;;6312765;28;20294;-71
2023/06/06 14:59:58;;;;;;;3.40;3.00;;;;;;;;;;6312900;28;20290;-71
2023/06/06 15:03:04;;;;;;;3.63;2.65;;;;;;;;;;6314909;28;20290;-71
2023/06/06 15:06:12;;;;;;;2.65;2.45;;;;;;;;;;6337926;28;20293;-71
2023/06/06 15:09:19;;;;;;;3.85;2.88;;;;;;;;;;6337746;28;20637;-70
2023/06/06 15:12:24;;;;;;;4.68;4.22;;;;;;;;;;6338593;28;20282;-71
2023/06/06 15:15:30;;;;;;;6.00;4.80;;;;;;;;;;6337693;28;20293;-71
2023/06/06 15:18:35;;;;;;;2.88;2.78;;;;;;;;;;6338101;28;20634;-71
2023/06/06 15:21:40;;;;;;;6.47;4.90;;;;;;;;;;6338047;28;20297;-71
2023/06/06 15:24:47;;;;;;;5.25;3.90;;;;;;;;;;6337885;28;20297;-71
2023/06/06 15:27:52;;;;;;;16.95;9.77;;;;;;;;;;6338618;28;20462;-72
2023/06/06 15:30:58;;;;;;;4.20;3.00;;;;;;;;;;6337377;28;20297;-71
2023/06/06 15:34:03;;;;;;;2.08;2.08;;;;;;;;;;6337729;28;20301;-72
2023/06/06 15:37:10;;;;;;;4.25;2.40;;;;;;;;;;6337837;28;20290;-72
2023/06/06 15:40:17;;;;;;;2.92;1.98;;;;;;;;;;6337103;28;20293;-72
2023/06/06 15:43:22;;;;;;;3.30;2.00;;;;;;;;;;6337878;28;20294;-71
2023/06/06 15:46:27;;;;;;;3.20;3.00;;;;;;;;;;6336973;28;20293;-71
2023/06/06 15:49:32;;;;;;;3.75;3.42;;;;;;;;;;6336816;28;20586;-71
2023/06/06 15:52:38;;;;;;;5.05;4.65;;;;;;;;;;6337513;28;20285;-72
2023/06/06 15:55:45;;;;;;;5.32;3.10;;;;;;;;;;6336786;28;20281;-70
2023/06/06 15:58:50;;;;;;;2.00;1.90;;;;;;;;;;6337103;28;20313;-72
2023/06/06 16:01:55;;;;;;;4.00;2.42;;;;;;;;;;6336398;28;20289;-70
2023/06/06 16:05:00;;;;;;;3.50;3.28;;;;;;;;;;6336244;28;20423;-70
2023/06/06 16:08:06;;;;;;;2.63;2.55;;;;;;;;;;6337298;28;20581;-70
2023/06/06 16:11:13;;;;;;;2.60;2.47;;;;;;;;;;6336606;28;20289;-71
2023/06/06 16:14:18;;;;;;;2.00;1.85;;;;;;;;;;6336172;28;20301;-71
2023/06/06 16:17:23;;;;;;;2.25;1.83;;;;;;;;;;6337109;28;20365;-71
2023/06/06 16:20:28;;;;;;;3.70;1.75;;;;;;;;;;6336147;28;20389;-69
2023/06/06 16:23:33;;;;;;;6.63;2.28;;;;;;;;;;6337069;28;20290;-71
2023/06/06 16:26:40;;;;;;;3.00;1.90;;;;;;;;;;6334805;28;20294;-70
2023/06/06 16:29:45;;;;;;;4.75;1.77;;;;;;;;;;6335653;28;20290;-71
2023/06/06 16:32:50;;;;;;;2.28;1.52;;;;;;;;;;6318407;28;20302;-71
2023/06/06 16:35:56;;;;;;;2.05;1.60;;;;;;;;;;6335833;28;20593;-71
2023/06/06 16:39:03;;;;;;;2.63;1.92;;;;;;;;;;6335605;28;20310;-70
2023/06/06 16:42:09;;;;;;;1.85;1.70;;;;;;;;;;6336134;28;20298;-71
2023/06/06 16:45:18;;;;;;;2.05;1.85;;;;;;;;;;6335845;28;20459;-70
2023/06/06 16:48:24;;;;;;;2.47;2.00;;;;;;;;;;6335948;28;20487;-70
2023/06/06 16:51:29;;;;;;;1.65;1.58;;;;;;;;;;6317837;28;20298;-70
2023/06/06 16:54:34;;;;;;;4.07;3.90;;;;;;;;;;6334658;28;20313;-70
2023/06/06 16:57:41;;;;;;;2.85;2.45;;;;;;;;;;6335972;28;20294;-72
2023/06/06 17:00:48;;;;;;;2.17;2.08;;;;;;;;;;6335642;28;20289;-70
2023/06/06 17:03:53;;;;;;;4.78;2.40;;;;;;;;;;6335156;28;20330;-72
2023/06/06 17:06:58;;;;;;;3.10;2.30;;;;;;;;;;6335319;28;20287;-70
2023/06/06 17:10:04;;;;;;;2.10;2.00;;;;;;;;;;6334912;28;20308;-71
2023/06/06 17:13:13;;;;;;;2.58;2.00;;;;;;;;;;6335389;28;20289;-71
2023/06/06 17:16:18;;;;;;;1.80;1.70;;;;;;;;;;6335220;28;20586;-71
2023/06/06 17:19:23;;;;;;;2.05;1.92;;;;;;;;;;6335137;28;20297;-72
2023/06/06 17:22:29;;;;;;;1.80;1.80;;;;;;;;;;6317449;28;20285;-71
2023/06/06 17:25:34;;;;;;;5.00;1.73;;;;;;;;;;6335078;28;20313;-71
2023/06/06 17:28:56;;;;;;;2.72;2.45;;;;;;;;;;6335497;28;20298;-72
2023/06/06 17:32:01;;;;;;;2.15;1.90;;;;;;;;;;6334325;28;20290;-71
2023/06/06 17:35:08;;;;;;;4.65;2.40;;;;;;;;;;6334688;28;20298;-70
2023/06/06 17:38:15;;;;;;;3.13;2.55;;;;;;;;;;6335309;28;20460;-73
2023/06/06 17:41:20;;;;;;;3.03;2.30;;;;;;;;;;6334908;28;20293;-70
2023/06/06 17:44:27;;;;;;;2.03;1.73;;;;;;;;;;6334446;28;20279;-70
2023/06/06 17:47:32;;;;;;;5.22;1.55;;;;;;;;;;6335498;28;20286;-71
2023/06/06 17:50:37;;;;;;;6.95;1.63;;;;;;;;;;6333994;28;20289;-71
2023/06/06 17:53:43;;;;;;;2.20;1.45;;;;;;;;;;6334952;28;20266;-71
2023/06/06 17:56:48;;;;;;;2.15;1.52;;;;;;;;;;6334546;28;20290;-71
2023/06/06 17:59:55;;;;;;;4.82;1.58;;;;;;;;;;6334498;28;20377;-71
2023/06/06 18:03:00;;;;;;;1.42;1.42;;;;;;;;;;6334855;28;20553;-71
2023/06/06 18:06:06;;;;;;;2.20;1.45;;;;;;;;;;6333920;28;20298;-70
2023/06/06 18:09:12;;;;;;;2.95;2.10;;;;;;;;;;6334189;28;20475;-71
2023/06/06 18:12:17;;;;;;;2.92;2.72;;;;;;;;;;6334410;28;20314;-72
2023/06/06 18:15:24;;;;;;;6.00;1.80;;;;;;;;;;6334317;28;20590;-71
2023/06/06 18:18:29;;;;;;;1.40;1.40;;;;;;;;;;6334727;28;20306;-71
2023/06/06 18:21:35;;;;;;;1.42;1.27;;;;;;;;;;6334584;28;20286;-71
2023/06/06 18:24:40;;;;;;;1.67;1.67;;;;;;;;;;6334538;28;20290;-70
2023/06/06 18:27:45;;;;;;;1.63;1.63;;;;;;;;;;6335288;28;20292;-72
2023/06/06 18:30:52;;;;;;;6.03;1.50;;;;;;;;;;6333999;28;20289;-71
2023/06/06 18:33:57;;;;;;;1.75;1.27;;;;;;;;;;6335054;28;20302;-70
2023/06/06 18:37:03;;;;;;;1.10;1.10;;;;;;;;;;6333290;28;20292;-70